sensor_id;sensor_type;location;lat;lon;timestamp;P1;durP1;ratioP1;P2;durP2;ratioP2
10596;SDS011;5346;48.766;8.674;2023-05-10T00:02:08;5.30;;;0.70;;
10596;SDS011;5346;48.766;8.674;2023-05-10T00:04:35;0.52;;;0.52;;
10596;SDS011;5346;48.766;8.674;2023-05-10T00:07:09;2.15;;;0.63;;
10596;SDS011;5346;48.766;8.674;2023-05-10T00:09:43;0.90;;;0.90;;
10596;SDS011;5346;48.766;8.674;2023-05-10T00:12:17;0.70;;;0.70;;
10596;SDS011;5346;48.766;8.674;2023-05-10T00:14:50;0.90;;;0.60;;
10596;SDS011;5346;48.766;8.674;2023-05-10T00:17:25;0.55;;;0.55;;
10596;SDS011;5346;48.766;8.674;2023-05-10T00:20:04;0.65;;;0.65;;
10596;SDS011;5346;48.766;8.674;2023-05-10T00:22:39;1.00;;;0.75;;
10596;SDS011;5346;48.766;8.674;2023-05-10T00:25:07;0.73;;;0.73;;
10596;SDS011;5346;48.766;8.674;2023-05-10T00:27:42;0.80;;;0.80;;
10596;SDS011;5346;48.766;8.674;2023-05-10T00:30:09;2.42;;;1.00;;
10596;SDS011;5346;48.766;8.674;2023-05-10T00:32:43;1.00;;;0.90;;
10596;SDS011;5346;48.766;8.674;2023-05-10T00:35:17;2.10;;;1.20;;
10596;SDS011;5346;48.766;8.674;2023-05-10T00:37:51;0.90;;;0.90;;
10596;SDS011;5346;48.766;8.674;2023-05-10T00:40:18;0.95;;;0.95;;
10596;SDS011;5346;48.766;8.674;2023-05-10T00:42:52;1.38;;;0.93;;
10596;SDS011;5346;48.766;8.674;2023-05-10T00:45:27;1.60;;;1.05;;
10596;SDS011;5346;48.766;8.674;2023-05-10T00:47:54;1.13;;;0.90;;
10596;SDS011;5346;48.766;8.674;2023-05-10T00:50:29;1.05;;;1.00;;
10596;SDS011;5346;48.766;8.674;2023-05-10T00:53:04;1.00;;;1.00;;
10596;SDS011;5346;48.766;8.674;2023-05-10T00:55:31;1.20;;;1.10;;
10596;SDS011;5346;48.766;8.674;2023-05-10T00:58:05;2.38;;;1.20;;
10596;SDS011;5346;48.766;8.674;2023-05-10T01:00:32;3.90;;;1.60;;
10596;SDS011;5346;48.766;8.674;2023-05-10T01:03:07;5.00;;;1.50;;
10596;SDS011;5346;48.766;8.674;2023-05-10T01:05:34;2.30;;;2.05;;
10596;SDS011;5346;48.766;8.674;2023-05-10T01:08:08;3.22;;;1.67;;
10596;SDS011;5346;48.766;8.674;2023-05-10T01:10:35;1.95;;;1.75;;
10596;SDS011;5346;48.766;8.674;2023-05-10T01:13:09;2.28;;;1.95;;
10596;SDS011;5346;48.766;8.674;2023-05-10T01:15:44;1.98;;;1.88;;
10596;SDS011;5346;48.766;8.674;2023-05-10T01:18:19;2.75;;;1.90;;
10596;SDS011;5346;48.766;8.674;2023-05-10T01:26:30;2.42;;;2.22;;
10596;SDS011;5346;48.766;8.674;2023-05-10T01:36:05;2.47;;;2.28;;
10596;SDS011;5346;48.766;8.674;2023-05-10T01:39:01;4.35;;;3.30;;
10596;SDS011;5346;48.766;8.674;2023-05-10T01:42:03;11.10;;;4.68;;
10596;SDS011;5346;48.766;8.674;2023-05-10T01:45:05;4.45;;;3.30;;
10596;SDS011;5346;48.766;8.674;2023-05-10T01:47:40;3.50;;;3.20;;
10596;SDS011;5346;48.766;8.674;2023-05-10T01:50:15;4.13;;;3.30;;
10596;SDS011;5346;48.766;8.674;2023-05-10T01:52:53;6.32;;;3.45;;
10596;SDS011;5346;48.766;8.674;2023-05-10T01:55:25;4.35;;;3.60;;
10596;SDS011;5346;48.766;8.674;2023-05-10T01:58:13;3.75;;;3.13;;
10596;SDS011;5346;48.766;8.674;2023-05-10T02:00:47;5.35;;;3.40;;
10596;SDS011;5346;48.766;8.674;2023-05-10T02:03:23;3.28;;;2.97;;
10596;SDS011;5346;48.766;8.674;2023-05-10T02:05:59;3.75;;;3.17;;
10596;SDS011;5346;48.766;8.674;2023-05-10T02:08:33;3.50;;;3.08;;
10596;SDS011;5346;48.766;8.674;2023-05-10T02:11:03;4.93;;;3.22;;
10596;SDS011;5346;48.766;8.674;2023-05-10T02:13:39;3.20;;;2.90;;
10596;SDS011;5346;48.766;8.674;2023-05-10T02:16:16;4.07;;;2.47;;
10596;SDS011;5346;48.766;8.674;2023-05-10T02:19:00;3.45;;;3.15;;
10596;SDS011;5346;48.766;8.674;2023-05-10T02:21:36;3.75;;;2.38;;
10596;SDS011;5346;48.766;8.674;2023-05-10T02:24:12;3.03;;;2.70;;
10596;SDS011;5346;48.766;8.674;2023-05-10T02:26:42;3.72;;;2.72;;
10596;SDS011;5346;48.766;8.674;2023-05-10T02:29:17;2.85;;;2.55;;
10596;SDS011;5346;48.766;8.674;2023-05-10T02:31:53;3.95;;;2.60;;
10596;SDS011;5346;48.766;8.674;2023-05-10T02:34:30;3.00;;;2.70;;
10596;SDS011;5346;48.766;8.674;2023-05-10T02:36:59;4.80;;;3.58;;
10596;SDS011;5346;48.766;8.674;2023-05-10T02:39:35;2.70;;;2.50;;
10596;SDS011;5346;48.766;8.674;2023-05-10T02:42:03;3.20;;;2.90;;
10596;SDS011;5346;48.766;8.674;2023-05-10T02:44:38;3.20;;;2.90;;
10596;SDS011;5346;48.766;8.674;2023-05-10T02:47:07;2.85;;;2.65;;
10596;SDS011;5346;48.766;8.674;2023-05-10T02:49:42;2.80;;;2.60;;
10596;SDS011;5346;48.766;8.674;2023-05-10T02:52:09;3.67;;;3.00;;
10596;SDS011;5346;48.766;8.674;2023-05-10T02:54:49;2.38;;;2.17;;
10596;SDS011;5346;48.766;8.674;2023-05-10T02:57:28;5.57;;;2.53;;
10596;SDS011;5346;48.766;8.674;2023-05-10T03:00:14;2.60;;;2.40;;
10596;SDS011;5346;48.766;8.674;2023-05-10T03:02:48;2.95;;;2.03;;
10596;SDS011;5346;48.766;8.674;2023-05-10T03:05:21;2.50;;;2.10;;
10596;SDS011;5346;48.766;8.674;2023-05-10T03:07:48;3.30;;;2.13;;
10596;SDS011;5346;48.766;8.674;2023-05-10T03:10:28;2.55;;;2.35;;
10596;SDS011;5346;48.766;8.674;2023-05-10T03:13:15;2.63;;;2.28;;
10596;SDS011;5346;48.766;8.674;2023-05-10T03:16:14;6.18;;;2.28;;
10596;SDS011;5346;48.766;8.674;2023-05-10T03:21:52;2.20;;;2.00;;
10596;SDS011;5346;48.766;8.674;2023-05-10T03:24:24;2.80;;;2.00;;
10596;SDS011;5346;48.766;8.674;2023-05-10T03:27:01;2.22;;;1.75;;
10596;SDS011;5346;48.766;8.674;2023-05-10T03:29:31;2.78;;;1.60;;
10596;SDS011;5346;48.766;8.674;2023-05-10T03:32:06;1.83;;;1.60;;
10596;SDS011;5346;48.766;8.674;2023-05-10T03:34:43;2.92;;;2.17;;
10596;SDS011;5346;48.766;8.674;2023-05-10T03:37:10;1.80;;;1.70;;
10596;SDS011;5346;48.766;8.674;2023-05-10T03:39:44;4.55;;;1.80;;
10596;SDS011;5346;48.766;8.674;2023-05-10T03:42:11;5.05;;;2.10;;
10596;SDS011;5346;48.766;8.674;2023-05-10T03:44:45;4.55;;;1.98;;
10596;SDS011;5346;48.766;8.674;2023-05-10T03:47:12;1.98;;;1.77;;
10596;SDS011;5346;48.766;8.674;2023-05-10T03:49:46;3.45;;;1.88;;
10596;SDS011;5346;48.766;8.674;2023-05-10T03:52:13;2.78;;;2.08;;
10596;SDS011;5346;48.766;8.674;2023-05-10T03:54:47;1.92;;;1.75;;
10596;SDS011;5346;48.766;8.674;2023-05-10T03:57:20;2.63;;;2.13;;
10596;SDS011;5346;48.766;8.674;2023-05-10T03:59:54;3.53;;;2.20;;
10596;SDS011;5346;48.766;8.674;2023-05-10T04:02:21;2.88;;;2.45;;
10596;SDS011;5346;48.766;8.674;2023-05-10T04:04:55;3.95;;;2.60;;
10596;SDS011;5346;48.766;8.674;2023-05-10T04:07:29;3.50;;;2.97;;
10596;SDS011;5346;48.766;8.674;2023-05-10T04:10:03;2.70;;;2.40;;
10596;SDS011;5346;48.766;8.674;2023-05-10T04:12:32;4.80;;;2.70;;
10596;SDS011;5346;48.766;8.674;2023-05-10T04:15:13;3.33;;;2.50;;
10596;SDS011;5346;48.766;8.674;2023-05-10T04:17:53;2.90;;;2.38;;
10596;SDS011;5346;48.766;8.674;2023-05-10T04:20:27;2.83;;;2.55;;
10596;SDS011;5346;48.766;8.674;2023-05-10T04:23:08;2.72;;;2.47;;
10596;SDS011;5346;48.766;8.674;2023-05-10T04:25:35;4.32;;;2.58;;
10596;SDS011;5346;48.766;8.674;2023-05-10T04:28:09;4.88;;;2.55;;
10596;SDS011;5346;48.766;8.674;2023-05-10T04:30:36;5.97;;;2.60;;
10596;SDS011;5346;48.766;8.674;2023-05-10T04:33:10;5.97;;;3.10;;
10596;SDS011;5346;48.766;8.674;2023-05-10T04:35:44;2.92;;;2.45;;
10596;SDS011;5346;48.766;8.674;2023-05-10T04:38:18;3.25;;;2.88;;
10596;SDS011;5346;48.766;8.674;2023-05-10T04:40:45;5.90;;;2.80;;
10596;SDS011;5346;48.766;8.674;2023-05-10T04:43:12;2.70;;;2.45;;
10596;SDS011;5346;48.766;8.674;2023-05-10T04:45:46;5.13;;;2.97;;
10596;SDS011;5346;48.766;8.674;2023-05-10T04:48:20;4.55;;;2.97;;
10596;SDS011;5346;48.766;8.674;2023-05-10T04:50:47;3.90;;;2.60;;
10596;SDS011;5346;48.766;8.674;2023-05-10T04:53:21;2.72;;;2.50;;
10596;SDS011;5346;48.766;8.674;2023-05-10T04:55:48;4.40;;;2.70;;
10596;SDS011;5346;48.766;8.674;2023-05-10T04:58:22;4.72;;;2.50;;
10596;SDS011;5346;48.766;8.674;2023-05-10T05:00:56;3.00;;;2.60;;
10596;SDS011;5346;48.766;8.674;2023-05-10T05:03:30;3.05;;;2.00;;
10596;SDS011;5346;48.766;8.674;2023-05-10T05:06:04;2.50;;;2.30;;
10596;SDS011;5346;48.766;8.674;2023-05-10T05:08:38;6.88;;;2.58;;
10596;SDS011;5346;48.766;8.674;2023-05-10T05:11:05;4.45;;;2.67;;
10596;SDS011;5346;48.766;8.674;2023-05-10T05:13:39;5.00;;;2.72;;
10596;SDS011;5346;48.766;8.674;2023-05-10T05:16:06;4.70;;;2.38;;
10596;SDS011;5346;48.766;8.674;2023-05-10T05:18:46;5.20;;;2.53;;
10596;SDS011;5346;48.766;8.674;2023-05-10T05:21:27;3.15;;;2.50;;
10596;SDS011;5346;48.766;8.674;2023-05-10T05:24:02;2.60;;;2.28;;
10596;SDS011;5346;48.766;8.674;2023-05-10T05:26:29;4.15;;;2.67;;
10596;SDS011;5346;48.766;8.674;2023-05-10T05:29:04;4.15;;;2.20;;
10596;SDS011;5346;48.766;8.674;2023-05-10T05:31:38;3.33;;;2.25;;
10596;SDS011;5346;48.766;8.674;2023-05-10T05:34:12;3.65;;;2.38;;
10596;SDS011;5346;48.766;8.674;2023-05-10T05:36:39;5.63;;;2.53;;
10596;SDS011;5346;48.766;8.674;2023-05-10T05:39:13;2.42;;;2.22;;
10596;SDS011;5346;48.766;8.674;2023-05-10T05:41:40;4.65;;;2.50;;
10596;SDS011;5346;48.766;8.674;2023-05-10T05:44:14;5.10;;;2.67;;
10596;SDS011;5346;48.766;8.674;2023-05-10T05:46:48;2.90;;;2.38;;
10596;SDS011;5346;48.766;8.674;2023-05-10T05:49:22;2.85;;;2.10;;
10596;SDS011;5346;48.766;8.674;2023-05-10T05:52:01;2.90;;;2.17;;
10596;SDS011;5346;48.766;8.674;2023-05-10T05:54:36;4.78;;;2.30;;
10596;SDS011;5346;48.766;8.674;2023-05-10T05:57:03;5.63;;;2.40;;
10596;SDS011;5346;48.766;8.674;2023-05-10T05:59:30;2.97;;;2.50;;
10596;SDS011;5346;48.766;8.674;2023-05-10T06:02:04;4.45;;;2.63;;
10596;SDS011;5346;48.766;8.674;2023-05-10T06:04:38;3.97;;;2.42;;
10596;SDS011;5346;48.766;8.674;2023-05-10T06:07:09;3.10;;;2.08;;
10596;SDS011;5346;48.766;8.674;2023-05-10T06:09:43;6.15;;;2.30;;
10596;SDS011;5346;48.766;8.674;2023-05-10T06:12:17;2.25;;;1.63;;
10596;SDS011;5346;48.766;8.674;2023-05-10T06:14:52;5.28;;;1.80;;
10596;SDS011;5346;48.766;8.674;2023-05-10T06:17:25;1.58;;;1.40;;
10596;SDS011;5346;48.766;8.674;2023-05-10T06:19:59;3.17;;;1.85;;
10596;SDS011;5346;48.766;8.674;2023-05-10T06:22:33;3.38;;;1.52;;
10596;SDS011;5346;48.766;8.674;2023-05-10T06:25:07;4.80;;;1.55;;
10596;SDS011;5346;48.766;8.674;2023-05-10T06:27:42;1.83;;;1.40;;
10596;SDS011;5346;48.766;8.674;2023-05-10T06:30:14;2.38;;;1.50;;
10596;SDS011;5346;48.766;8.674;2023-05-10T06:32:48;1.50;;;1.20;;
10596;SDS011;5346;48.766;8.674;2023-05-10T06:35:15;2.13;;;1.10;;
10596;SDS011;5346;48.766;8.674;2023-05-10T06:37:49;3.00;;;0.90;;
10596;SDS011;5346;48.766;8.674;2023-05-10T06:40:17;1.00;;;1.00;;
10596;SDS011;5346;48.766;8.674;2023-05-10T06:42:51;1.13;;;1.00;;
10596;SDS011;5346;48.766;8.674;2023-05-10T06:45:18;1.20;;;0.98;;
10596;SDS011;5346;48.766;8.674;2023-05-10T06:47:45;2.47;;;0.88;;
10596;SDS011;5346;48.766;8.674;2023-05-10T06:50:19;0.95;;;0.82;;
10596;SDS011;5346;48.766;8.674;2023-05-10T06:52:53;2.63;;;1.00;;
10596;SDS011;5346;48.766;8.674;2023-05-10T06:55:20;1.48;;;0.90;;
10596;SDS011;5346;48.766;8.674;2023-05-10T06:57:54;1.30;;;1.20;;
10596;SDS011;5346;48.766;8.674;2023-05-10T07:00:28;0.90;;;0.80;;
10596;SDS011;5346;48.766;8.674;2023-05-10T07:03:02;0.70;;;0.70;;
10596;SDS011;5346;48.766;8.674;2023-05-10T07:05:36;0.95;;;0.85;;
10596;SDS011;5346;48.766;8.674;2023-05-10T07:08:03;0.93;;;0.88;;
10596;SDS011;5346;48.766;8.674;2023-05-10T07:10:30;1.58;;;0.70;;
10596;SDS011;5346;48.766;8.674;2023-05-10T07:13:04;1.45;;;0.80;;
10596;SDS011;5346;48.766;8.674;2023-05-10T07:15:33;0.70;;;0.65;;
10596;SDS011;5346;48.766;8.674;2023-05-10T07:18:13;2.28;;;0.73;;
10596;SDS011;5346;48.766;8.674;2023-05-10T07:20:54;2.47;;;0.80;;
10596;SDS011;5346;48.766;8.674;2023-05-10T07:23:29;1.92;;;0.50;;
10596;SDS011;5346;48.766;8.674;2023-05-10T07:25:56;1.60;;;0.70;;
10596;SDS011;5346;48.766;8.674;2023-05-10T07:28:30;0.40;;;0.40;;
10596;SDS011;5346;48.766;8.674;2023-05-10T07:30:57;0.77;;;0.50;;
10596;SDS011;5346;48.766;8.674;2023-05-10T07:33:32;1.40;;;0.75;;
10596;SDS011;5346;48.766;8.674;2023-05-10T07:36:06;0.65;;;0.60;;
10596;SDS011;5346;48.766;8.674;2023-05-10T07:38:40;0.52;;;0.52;;
10596;SDS011;5346;48.766;8.674;2023-05-10T07:41:07;1.00;;;0.57;;
10596;SDS011;5346;48.766;8.674;2023-05-10T07:43:42;1.38;;;0.40;;
10596;SDS011;5346;48.766;8.674;2023-05-10T07:46:09;3.08;;;0.55;;
10596;SDS011;5346;48.766;8.674;2023-05-10T07:48:45;0.40;;;0.40;;
10596;SDS011;5346;48.766;8.674;2023-05-10T07:51:19;0.52;;;0.50;;
10596;SDS011;5346;48.766;8.674;2023-05-10T07:53:46;0.73;;;0.38;;
10596;SDS011;5346;48.766;8.674;2023-05-10T07:59:06;0.50;;;0.50;;
10596;SDS011;5346;48.766;8.674;2023-05-10T08:01:37;0.70;;;0.40;;
10596;SDS011;5346;48.766;8.674;2023-05-10T08:04:11;1.17;;;0.60;;
10596;SDS011;5346;48.766;8.674;2023-05-10T08:06:39;3.83;;;0.73;;
10596;SDS011;5346;48.766;8.674;2023-05-10T08:09:14;1.95;;;0.52;;
10596;SDS011;5346;48.766;8.674;2023-05-10T08:11:42;0.40;;;0.40;;
10596;SDS011;5346;48.766;8.674;2023-05-10T08:14:16;0.55;;;0.50;;
10596;SDS011;5346;48.766;8.674;2023-05-10T08:16:45;0.60;;;0.60;;
10596;SDS011;5346;48.766;8.674;2023-05-10T08:19:20;0.40;;;0.40;;
10596;SDS011;5346;48.766;8.674;2023-05-10T08:21:54;1.52;;;0.60;;
10596;SDS011;5346;48.766;8.674;2023-05-10T08:24:31;0.60;;;0.60;;
10596;SDS011;5346;48.766;8.674;2023-05-10T08:27:05;0.57;;;0.55;;
10596;SDS011;5346;48.766;8.674;2023-05-10T08:29:32;0.60;;;0.60;;
10596;SDS011;5346;48.766;8.674;2023-05-10T08:32:15;0.47;;;0.43;;
10596;SDS011;5346;48.766;8.674;2023-05-10T08:34:49;1.17;;;0.60;;
10596;SDS011;5346;48.766;8.674;2023-05-10T08:37:25;1.40;;;0.50;;
10596;SDS011;5346;48.766;8.674;2023-05-10T08:39:52;1.23;;;0.60;;
10596;SDS011;5346;48.766;8.674;2023-05-10T08:42:27;1.85;;;0.40;;
10596;SDS011;5346;48.766;8.674;2023-05-10T08:45:04;0.50;;;0.50;;
10596;SDS011;5346;48.766;8.674;2023-05-10T08:47:36;1.35;;;0.63;;
10596;SDS011;5346;48.766;8.674;2023-05-10T08:50:14;2.95;;;0.63;;
10596;SDS011;5346;48.766;8.674;2023-05-10T08:52:52;0.98;;;0.45;;
10596;SDS011;5346;48.766;8.674;2023-05-10T08:55:32;0.30;;;0.30;;
10596;SDS011;5346;48.766;8.674;2023-05-10T08:58:12;3.35;;;0.50;;
10596;SDS011;5346;48.766;8.674;2023-05-10T09:00:46;0.47;;;0.45;;
10596;SDS011;5346;48.766;8.674;2023-05-10T09:03:25;1.55;;;0.47;;
10596;SDS011;5346;48.766;8.674;2023-05-10T09:05:59;0.50;;;0.45;;
10596;SDS011;5346;48.766;8.674;2023-05-10T09:08:33;3.13;;;0.60;;
10596;SDS011;5346;48.766;8.674;2023-05-10T09:11:09;0.40;;;0.40;;
10596;SDS011;5346;48.766;8.674;2023-05-10T09:13:45;2.70;;;0.80;;
10596;SDS011;5346;48.766;8.674;2023-05-10T09:16:21;0.50;;;0.50;;
10596;SDS011;5346;48.766;8.674;2023-05-10T09:18:56;1.15;;;0.82;;
10596;SDS011;5346;48.766;8.674;2023-05-10T09:21:36;1.20;;;0.73;;
10596;SDS011;5346;48.766;8.674;2023-05-10T09:24:11;0.73;;;0.57;;
10596;SDS011;5346;48.766;8.674;2023-05-10T09:26:45;0.75;;;0.35;;
10596;SDS011;5346;48.766;8.674;2023-05-10T09:29:24;0.68;;;0.60;;
10596;SDS011;5346;48.766;8.674;2023-05-10T09:31:58;0.43;;;0.43;;
10596;SDS011;5346;48.766;8.674;2023-05-10T09:34:33;0.60;;;0.35;;
10596;SDS011;5346;48.766;8.674;2023-05-10T09:37:03;0.80;;;0.80;;
10596;SDS011;5346;48.766;8.674;2023-05-10T09:39:38;1.42;;;0.55;;
10596;SDS011;5346;48.766;8.674;2023-05-10T09:42:08;0.88;;;0.70;;
10596;SDS011;5346;48.766;8.674;2023-05-10T09:44:43;0.50;;;0.50;;
10596;SDS011;5346;48.766;8.674;2023-05-10T09:47:19;0.65;;;0.35;;
10596;SDS011;5346;48.766;8.674;2023-05-10T09:49:53;1.02;;;0.80;;
10596;SDS011;5346;48.766;8.674;2023-05-10T09:52:24;2.13;;;0.80;;
10596;SDS011;5346;48.766;8.674;2023-05-10T09:54:58;1.02;;;0.90;;
10596;SDS011;5346;48.766;8.674;2023-05-10T09:57:32;0.98;;;0.57;;
10596;SDS011;5346;48.766;8.674;2023-05-10T10:00:07;1.38;;;0.55;;
10596;SDS011;5346;48.766;8.674;2023-05-10T10:02:44;0.85;;;0.60;;
10596;SDS011;5346;48.766;8.674;2023-05-10T10:05:28;1.30;;;0.50;;
10596;SDS011;5346;48.766;8.674;2023-05-10T10:08:07;2.70;;;0.57;;
10596;SDS011;5346;48.766;8.674;2023-05-10T10:10:41;0.80;;;0.80;;
10596;SDS011;5346;48.766;8.674;2023-05-10T10:13:11;0.85;;;0.80;;
10596;SDS011;5346;48.766;8.674;2023-05-10T10:15:46;1.02;;;0.70;;
10596;SDS011;5346;48.766;8.674;2023-05-10T10:18:17;3.10;;;0.60;;
10596;SDS011;5346;48.766;8.674;2023-05-10T10:20:56;1.20;;;0.88;;
10596;SDS011;5346;48.766;8.674;2023-05-10T10:23:30;0.52;;;0.52;;
10596;SDS011;5346;48.766;8.674;2023-05-10T10:26:05;0.75;;;0.60;;
10596;SDS011;5346;48.766;8.674;2023-05-10T10:31:50;3.50;;;0.80;;
10596;SDS011;5346;48.766;8.674;2023-05-10T10:34:53;0.45;;;0.45;;
10596;SDS011;5346;48.766;8.674;2023-05-10T10:37:45;1.42;;;0.50;;
10596;SDS011;5346;48.766;8.674;2023-05-10T10:40:25;0.82;;;0.70;;
10596;SDS011;5346;48.766;8.674;2023-05-10T10:46:11;2.53;;;0.80;;
10596;SDS011;5346;48.766;8.674;2023-05-10T10:49:08;3.30;;;1.00;;
10596;SDS011;5346;48.766;8.674;2023-05-10T10:52:12;1.33;;;0.77;;
10596;SDS011;5346;48.766;8.674;2023-05-10T10:57:53;1.45;;;0.73;;
10596;SDS011;5346;48.766;8.674;2023-05-10T11:00:36;6.35;;;1.02;;
10596;SDS011;5346;48.766;8.674;2023-05-10T11:03:13;2.55;;;1.00;;
10596;SDS011;5346;48.766;8.674;2023-05-10T11:05:48;6.28;;;1.27;;
10596;SDS011;5346;48.766;8.674;2023-05-10T11:08:30;0.95;;;0.70;;
10596;SDS011;5346;48.766;8.674;2023-05-10T11:11:04;1.13;;;0.77;;
10596;SDS011;5346;48.766;8.674;2023-05-10T11:13:41;2.30;;;1.00;;
10596;SDS011;5346;48.766;8.674;2023-05-10T11:19:07;2.00;;;1.13;;
10596;SDS011;5346;48.766;8.674;2023-05-10T11:21:51;1.95;;;1.02;;
10596;SDS011;5346;48.766;8.674;2023-05-10T11:24:57;2.13;;;0.90;;
10596;SDS011;5346;48.766;8.674;2023-05-10T11:27:24;2.08;;;1.05;;
10596;SDS011;5346;48.766;8.674;2023-05-10T11:29:58;1.75;;;0.95;;
10596;SDS011;5346;48.766;8.674;2023-05-10T11:32:32;1.08;;;0.80;;
10596;SDS011;5346;48.766;8.674;2023-05-10T11:35:06;1.27;;;0.77;;
10596;SDS011;5346;48.766;8.674;2023-05-10T11:37:38;2.45;;;0.98;;
10596;SDS011;5346;48.766;8.674;2023-05-10T11:40:17;2.63;;;0.90;;
10596;SDS011;5346;48.766;8.674;2023-05-10T11:42:45;1.95;;;0.70;;
10596;SDS011;5346;48.766;8.674;2023-05-10T11:45:19;2.10;;;1.10;;
10596;SDS011;5346;48.766;8.674;2023-05-10T11:47:48;1.88;;;1.20;;
10596;SDS011;5346;48.766;8.674;2023-05-10T11:50:23;1.23;;;1.05;;
10596;SDS011;5346;48.766;8.674;2023-05-10T11:52:52;1.27;;;0.95;;
10596;SDS011;5346;48.766;8.674;2023-05-10T11:55:29;2.05;;;0.90;;
10596;SDS011;5346;48.766;8.674;2023-05-10T11:58:00;2.60;;;0.80;;
10596;SDS011;5346;48.766;8.674;2023-05-10T12:00:28;3.35;;;1.17;;
10596;SDS011;5346;48.766;8.674;2023-05-10T12:03:05;2.55;;;1.27;;
10596;SDS011;5346;48.766;8.674;2023-05-10T12:05:32;1.45;;;1.00;;
10596;SDS011;5346;48.766;8.674;2023-05-10T12:08:13;2.22;;;0.88;;
10596;SDS011;5346;48.766;8.674;2023-05-10T12:10:41;6.53;;;1.02;;
10596;SDS011;5346;48.766;8.674;2023-05-10T12:13:15;0.80;;;0.80;;
10596;SDS011;5346;48.766;8.674;2023-05-10T12:15:43;1.42;;;0.80;;
10596;SDS011;5346;48.766;8.674;2023-05-10T12:18:22;1.50;;;1.00;;
10596;SDS011;5346;48.766;8.674;2023-05-10T12:21:03;1.25;;;0.90;;
10596;SDS011;5346;48.766;8.674;2023-05-10T12:23:30;3.50;;;0.80;;
10596;SDS011;5346;48.766;8.674;2023-05-10T12:26:04;2.67;;;0.90;;
10596;SDS011;5346;48.766;8.674;2023-05-10T12:28:39;2.80;;;0.80;;
10596;SDS011;5346;48.766;8.674;2023-05-10T12:31:06;1.63;;;0.70;;
10596;SDS011;5346;48.766;8.674;2023-05-10T12:33:41;2.13;;;0.90;;
10596;SDS011;5346;48.766;8.674;2023-05-10T12:36:22;2.17;;;0.90;;
10596;SDS011;5346;48.766;8.674;2023-05-10T12:38:50;3.58;;;1.10;;
10596;SDS011;5346;48.766;8.674;2023-05-10T12:41:25;0.80;;;0.70;;
10596;SDS011;5346;48.766;8.674;2023-05-10T12:43:59;3.25;;;1.38;;
10596;SDS011;5346;48.766;8.674;2023-05-10T12:46:33;4.47;;;0.80;;
10596;SDS011;5346;48.766;8.674;2023-05-10T12:49:00;2.22;;;0.60;;
10596;SDS011;5346;48.766;8.674;2023-05-10T12:51:35;2.05;;;0.80;;
10596;SDS011;5346;48.766;8.674;2023-05-10T12:54:02;2.33;;;0.57;;
10596;SDS011;5346;48.766;8.674;2023-05-10T12:56:36;2.30;;;0.77;;
10596;SDS011;5346;48.766;8.674;2023-05-10T12:59:10;1.92;;;0.80;;
10596;SDS011;5346;48.766;8.674;2023-05-10T13:01:37;2.72;;;0.70;;
10596;SDS011;5346;48.766;8.674;2023-05-10T13:04:11;2.90;;;0.70;;
10596;SDS011;5346;48.766;8.674;2023-05-10T13:06:38;1.17;;;0.75;;
10596;SDS011;5346;48.766;8.674;2023-05-10T13:09:12;1.17;;;0.90;;
10596;SDS011;5346;48.766;8.674;2023-05-10T13:11:46;2.58;;;1.02;;
10596;SDS011;5346;48.766;8.674;2023-05-10T13:14:21;2.42;;;0.80;;
10596;SDS011;5346;48.766;8.674;2023-05-10T13:16:55;0.90;;;0.68;;
10596;SDS011;5346;48.766;8.674;2023-05-10T13:19:22;3.20;;;0.70;;
10596;SDS011;5346;48.766;8.674;2023-05-10T13:22:02;1.77;;;1.00;;
10596;SDS011;5346;48.766;8.674;2023-05-10T13:24:31;4.70;;;0.85;;
10596;SDS011;5346;48.766;8.674;2023-05-10T13:27:05;3.30;;;0.77;;
10596;SDS011;5346;48.766;8.674;2023-05-10T13:29:32;2.33;;;0.65;;
10596;SDS011;5346;48.766;8.674;2023-05-10T13:32:09;1.23;;;0.73;;
10596;SDS011;5346;48.766;8.674;2023-05-10T13:34:37;2.50;;;0.77;;
10596;SDS011;5346;48.766;8.674;2023-05-10T13:37:10;0.85;;;0.52;;
10596;SDS011;5346;48.766;8.674;2023-05-10T13:39:37;1.20;;;0.68;;
10596;SDS011;5346;48.766;8.674;2023-05-10T13:42:04;2.35;;;1.10;;
10596;SDS011;5346;48.766;8.674;2023-05-10T13:44:38;1.80;;;0.98;;
10596;SDS011;5346;48.766;8.674;2023-05-10T13:47:12;1.83;;;0.68;;
10596;SDS011;5346;48.766;8.674;2023-05-10T13:49:46;2.88;;;0.90;;
10596;SDS011;5346;48.766;8.674;2023-05-10T13:52:13;0.88;;;0.80;;
10596;SDS011;5346;48.766;8.674;2023-05-10T13:54:47;2.85;;;0.98;;
10596;SDS011;5346;48.766;8.674;2023-05-10T13:57:21;3.35;;;1.02;;
10596;SDS011;5346;48.766;8.674;2023-05-10T13:59:49;3.75;;;0.70;;
10596;SDS011;5346;48.766;8.674;2023-05-10T14:02:16;3.42;;;0.90;;
10596;SDS011;5346;48.766;8.674;2023-05-10T14:04:50;3.55;;;0.80;;
10596;SDS011;5346;48.766;8.674;2023-05-10T14:07:17;0.88;;;0.68;;
10596;SDS011;5346;48.766;8.674;2023-05-10T14:09:51;2.17;;;0.65;;
10596;SDS011;5346;48.766;8.674;2023-05-10T14:12:24;1.23;;;0.85;;
10596;SDS011;5346;48.766;8.674;2023-05-10T14:14:51;4.63;;;0.90;;
10596;SDS011;5346;48.766;8.674;2023-05-10T14:17:25;0.70;;;0.60;;
10596;SDS011;5346;48.766;8.674;2023-05-10T14:19:52;3.55;;;1.45;;
10596;SDS011;5346;48.766;8.674;2023-05-10T14:22:40;0.90;;;0.68;;
10596;SDS011;5346;48.766;8.674;2023-05-10T14:25:07;0.80;;;0.60;;
10596;SDS011;5346;48.766;8.674;2023-05-10T14:27:42;0.93;;;0.70;;
10596;SDS011;5346;48.766;8.674;2023-05-10T14:30:09;2.50;;;0.65;;
10596;SDS011;5346;48.766;8.674;2023-05-10T14:32:44;0.60;;;0.60;;
10596;SDS011;5346;48.766;8.674;2023-05-10T14:35:12;1.67;;;0.80;;
10596;SDS011;5346;48.766;8.674;2023-05-10T14:37:46;2.63;;;0.65;;
10596;SDS011;5346;48.766;8.674;2023-05-10T14:40:21;1.00;;;0.90;;
10596;SDS011;5346;48.766;8.674;2023-05-10T14:42:49;3.20;;;0.80;;
10596;SDS011;5346;48.766;8.674;2023-05-10T14:45:26;1.17;;;0.40;;
10596;SDS011;5346;48.766;8.674;2023-05-10T14:47:54;3.95;;;0.70;;
10596;SDS011;5346;48.766;8.674;2023-05-10T14:50:21;1.63;;;0.47;;
10596;SDS011;5346;48.766;8.674;2023-05-10T14:53:01;1.60;;;0.80;;
10596;SDS011;5346;48.766;8.674;2023-05-10T14:55:42;1.70;;;0.52;;
10596;SDS011;5346;48.766;8.674;2023-05-10T14:58:09;3.03;;;0.68;;
10596;SDS011;5346;48.766;8.674;2023-05-10T15:00:43;0.50;;;0.35;;
10596;SDS011;5346;48.766;8.674;2023-05-10T15:03:17;0.50;;;0.50;;
10596;SDS011;5346;48.766;8.674;2023-05-10T15:05:52;1.92;;;0.70;;
10596;SDS011;5346;48.766;8.674;2023-05-10T15:08:26;2.20;;;0.63;;
10596;SDS011;5346;48.766;8.674;2023-05-10T15:10:54;2.88;;;0.80;;
10596;SDS011;5346;48.766;8.674;2023-05-10T15:13:22;1.15;;;0.52;;
10596;SDS011;5346;48.766;8.674;2023-05-10T15:15:56;2.17;;;0.70;;
10596;SDS011;5346;48.766;8.674;2023-05-10T15:18:23;2.55;;;0.68;;
10596;SDS011;5346;48.766;8.674;2023-05-10T15:21:03;3.03;;;0.63;;
10596;SDS011;5346;48.766;8.674;2023-05-10T15:23:30;1.23;;;0.63;;
10596;SDS011;5346;48.766;8.674;2023-05-10T15:26:06;1.20;;;0.65;;
10596;SDS011;5346;48.766;8.674;2023-05-10T15:28:34;2.10;;;0.70;;
10596;SDS011;5346;48.766;8.674;2023-05-10T15:31:08;0.40;;;0.40;;
10596;SDS011;5346;48.766;8.674;2023-05-10T15:33:36;1.10;;;0.50;;
10596;SDS011;5346;48.766;8.674;2023-05-10T15:36:11;0.40;;;0.40;;
10596;SDS011;5346;48.766;8.674;2023-05-10T15:38:39;0.68;;;0.52;;
10596;SDS011;5346;48.766;8.674;2023-05-10T15:41:12;2.58;;;0.63;;
10596;SDS011;5346;48.766;8.674;2023-05-10T15:43:39;1.83;;;0.70;;
10596;SDS011;5346;48.766;8.674;2023-05-10T15:46:07;2.15;;;0.60;;
10596;SDS011;5346;48.766;8.674;2023-05-10T15:48:41;0.63;;;0.40;;
10596;SDS011;5346;48.766;8.674;2023-05-10T15:51:16;1.10;;;0.70;;
10596;SDS011;5346;48.766;8.674;2023-05-10T15:53:52;0.70;;;0.55;;
10596;SDS011;5346;48.766;8.674;2023-05-10T15:56:33;1.58;;;0.80;;
10596;SDS011;5346;48.766;8.674;2023-05-10T15:59:07;2.92;;;0.90;;
10596;SDS011;5346;48.766;8.674;2023-05-10T16:01:43;2.40;;;0.70;;
10596;SDS011;5346;48.766;8.674;2023-05-10T16:04:17;0.38;;;0.38;;
10596;SDS011;5346;48.766;8.674;2023-05-10T16:06:44;0.60;;;0.60;;
10596;SDS011;5346;48.766;8.674;2023-05-10T16:09:18;0.55;;;0.50;;
10596;SDS011;5346;48.766;8.674;2023-05-10T16:11:46;3.83;;;0.63;;